Cleveland, MO (64734)

4:06 PM CDT on September 01, 2014 (GMT -0500)
School Rd | Change Station
CLOSE
Current Station
Personal Weather Station
Location: Peculiar, MO
Elevation: 1004 ft
Nearby Weather Stations

Elev 1004 ft 38.74 °N, 94.46 °W | Updated 3 minutes ago

Overcast
Overcast
77.9 °F
Feels Like 80 °F
N
0.0
Wind Variable Wind from SSW

Today
High -- | Low -- °F
--% Chance of Precip.
Yesterday
High -- | Low -- °F
Precip. -- in
6:47 AM 7:48 PM
Waxing Crescent, 44% visible
Pressure 29.86 in
Visibility 10.0 miles
Clouds Overcast 2900 ft
Heat Index 80 °F
Dew Point 69 °F
Humidity 74%
Rainfall 1.91 in
Snow Depth Not available.
UV 2 out of 12
Pollen 3.90 out of 12
Air Quality Not available.
Flu Activity Not available.
METAR KOJC 012053Z 21007KT 10SM OVC029 25/19 A2989 RMK AO2 SLP111 T02500189 56005

More Conditions Fewer Conditions

Pressure 29.86 in
Visibility 10.0 miles
Clouds Overcast 2900 ft
Heat Index 80 °F
Dew Point 69 °F
Humidity 74%
Rainfall 1.91 in
Snow Depth Not available.
UV 2 out of 12
Pollen 3.90 out of 12
Air Quality Not available.
Flu Activity Not available.
METAR KOJC 012053Z 21007KT 10SM OVC029 25/19 A2989 RMK AO2 SLP111 T02500189 56005

More Conditions Fewer Conditions

10-Day Weather Forecast

Almanac

Astronomy

Sep. 01, 2014 Rise Set
Actual Time 6:47 AM CDT 7:48 PM CDT
Civil Twilight 6:20 AM CDT 8:15 PM CDT
Nautical Twilight 5:47 AM CDT 8:47 PM CDT
Astronomical Twilight 5:14 AM CDT 9:21 PM CDT
Moon 1:29 PM CDT 11:54 PM CDT
Length of Visible Light 13h 55m
Length of Day
13h 00m
Tomorrow will be 2m 25s shorter.
Waxing Crescent, 44% of the Moon is Illuminated
Today
Waxing Crescent
Sep 2
First Quarter
Sep 8
Full
Sep 15
Last Quarter
Sep 24
New

Today's Extremes

State Highs State Lows

Community

WunderPhotos

Upload Photos

1,749,407 photos uploaded!

WunderBlogs® & News

Nearby

Snow Depth

Station Depth Elevation
No new snow has been reported.

Earthquake Activity

City Distance Mag. Time & Date
No recent earthquake activity has been reported nearby.
Minimum magnitude displayed is 2.5.

Coastal Water Temperatures

Place Temperature
No Stations Reporting

Nearby Weather Stations